Time;durP1;ratioP1;P1;durP2;ratioP2;P2;SDS_P1;SDS_P2;PMS_P1;PMS_P2;Temp;Humidity;BMP_temperature;BMP_pressure;BME280_temperature;BME280_humidity;BME280_pressure;Samples;Min_cycle;Max_cycle;Signal;HPM_P1;HPM_P2
2023/10/13 00:02:01;;;;;;;;;;;;;;;20.98;28.83;98335.34;4987498;28;1520;-74
2023/10/13 00:04:27;;;;;;;;;;;;;;;20.64;29.13;98336.38;4977284;28;1509;-75
2023/10/13 00:06:52;;;;;;;;;;;;;;;20.54;29.34;98326.03;4992896;28;1669;-74
2023/10/13 00:09:20;;;;;;;;;;;;;;;20.55;29.48;98324.81;4978309;28;1482;-75
2023/10/13 00:11:46;;;;;;;;;;;;;;;20.58;29.38;98312.66;4980067;28;1650;-74
2023/10/13 00:14:15;;;;;;;;;;;;;;;20.62;29.44;98316.19;4978752;28;1673;-74
2023/10/13 00:16:41;;;;;;;;;;;;;;;20.63;29.27;98309.34;4968168;28;1493;-75
2023/10/13 00:19:08;;;;;;;;;;;;;;;20.50;29.50;98311.97;4962881;28;1898;-75
2023/10/13 00:21:35;;;;;;;;;;;;;;;20.54;29.38;98312.72;4961457;28;1489;-75
2023/10/13 00:24:01;;;;;;;;;;;;;;;20.63;29.28;98315.00;4969033;28;1630;-75
2023/10/13 00:26:27;;;;;;;;;;;;;;;20.40;29.86;98317.78;4992697;28;1548;-75
2023/10/13 00:31:38;;;;;;;;;;;;;;;21.21;28.57;98309.84;5032434;28;1592;-74
2023/10/13 00:34:11;;;;;;;;;;;;;;;21.41;28.38;98317.56;5031801;28;1524;-75
2023/10/13 00:37:10;;;;;;;;;;;;;;;21.20;28.54;98305.44;5032518;28;1660;-75
2023/10/13 00:39:28;;;;;;;;;;;;;;;20.91;28.99;98310.81;5009913;28;1895;-74
2023/10/13 00:41:58;;;;;;;;;;;;;;;20.58;29.60;98312.66;5049582;28;1373;-75
2023/10/13 00:44:37;;;;;;;;;;;;;;;20.28;30.07;98317.16;5022627;28;1546;-74
2023/10/13 00:47:03;;;;;;;;;;;;;;;20.43;29.72;98311.28;5013233;28;1596;-75
2023/10/13 00:49:30;;;;;;;;;;;;;;;20.46;29.58;98310.41;4979044;28;1462;-74
2023/10/13 00:51:56;;;;;;;;;;;;;;;20.73;29.20;98302.69;4981783;28;1485;-75
2023/10/13 00:54:26;;;;;;;;;;;;;;;20.46;29.82;98310.41;4995155;28;1520;-75
2023/10/13 00:57:04;;;;;;;;;;;;;;;20.42;29.90;98309.69;4994691;28;1361;-75
2023/10/13 00:59:33;;;;;;;;;;;;;;;20.37;29.84;98310.16;5010724;28;1902;-75
2023/10/13 01:02:25;;;;;;;;;;;;;;;20.79;29.29;98306.59;5005716;28;1485;-74
2023/10/13 01:04:46;;;;;;;;;;;;;;;20.67;29.25;98298.75;4983363;28;1571;-75
2023/10/13 01:07:12;;;;;;;;;;;;;;;20.43;29.49;98294.31;4995330;28;1740;-75
2023/10/13 01:09:42;;;;;;;;;;;;;;;20.24;30.18;98290.97;4964512;28;1521;-74
2023/10/13 01:12:08;;;;;;;;;;;;;;;20.48;29.68;98297.47;4925624;29;1638;-75
2023/10/13 01:14:35;;;;;;;;;;;;;;;20.93;28.98;98282.09;4944152;28;1515;-74
2023/10/13 01:17:01;;;;;;;;;;;;;;;21.38;28.09;98284.47;4957696;28;1616;-74
2023/10/13 01:19:27;;;;;;;;;;;;;;;21.31;28.12;98286.22;4956741;28;1895;-75
2023/10/13 01:22:03;;;;;;;;;;;;;;;20.94;28.64;98278.06;4936689;29;1607;-75
2023/10/13 01:24:34;;;;;;;;;;;;;;;20.71;28.98;98276.06;4950533;28;1550;-74
2023/10/13 01:27:17;;;;;;;;;;;;;;;20.64;28.96;98282.66;4990930;28;1478;-75
2023/10/13 01:29:47;;;;;;;;;;;;;;;20.43;29.64;98283.81;4978830;28;1494;-74
2023/10/13 01:32:13;;;;;;;;;;;;;;;20.60;29.54;98275.47;4991559;28;1653;-75
2023/10/13 01:34:39;;;;;;;;;;;;;;;20.84;29.17;98279.88;4971859;28;1552;-75
2023/10/13 01:37:06;;;;;;;;;;;;;;;20.71;29.24;98273.22;4957874;28;1509;-74
2023/10/13 01:39:31;;;;;;;;;;;;;;;20.76;28.89;98273.53;4971844;28;1903;-76
2023/10/13 01:41:57;;;;;;;;;;;;;;;20.26;30.00;98288.53;4958365;28;1478;-75
2023/10/13 01:44:30;;;;;;;;;;;;;;;20.54;29.65;98286.47;4942090;28;1518;-75
2023/10/13 01:46:59;;;;;;;;;;;;;;;20.48;29.46;98285.38;4941114;29;1626;-75
2023/10/13 01:49:24;;;;;;;;;;;;;;;20.27;30.03;98281.66;4957993;28;1617;-75
2023/10/13 01:51:50;;;;;;;;;;;;;;;20.55;29.65;98279.59;4974577;28;1562;-74
2023/10/13 01:54:16;;;;;;;;;;;;;;;20.40;29.52;98279.00;4984094;28;1584;-75
2023/10/13 01:56:44;;;;;;;;;;;;;;;20.48;29.67;98282.53;4966577;28;1510;-75
2023/10/13 01:59:10;;;;;;;;;;;;;;;20.62;29.21;98268.13;4973141;28;1969;-76
2023/10/13 02:01:36;;;;;;;;;;;;;;;20.61;29.22;98279.88;4973750;28;1450;-75
2023/10/13 02:04:04;;;;;;;;;;;;;;;21.01;28.65;98280.75;4981985;28;1498;-76
2023/10/13 02:06:33;;;;;;;;;;;;;;;21.16;28.73;98284.88;5009192;28;1639;-74
2023/10/13 02:09:10;;;;;;;;;;;;;;;21.23;28.39;98290.38;5005311;28;1625;-74
2023/10/13 02:11:37;;;;;;;;;;;;;;;20.86;28.71;98282.25;5009215;28;1461;-74
2023/10/13 02:14:03;;;;;;;;;;;;;;;21.09;28.59;98285.03;5020481;28;1494;-75
2023/10/13 02:16:30;;;;;;;;;;;;;;;20.50;29.23;98288.56;5020822;28;1607;-75
2023/10/13 02:18:57;;;;;;;;;;;;;;;20.28;29.78;98294.53;5020598;28;1922;-75
2023/10/13 02:21:31;;;;;;;;;;;;;;;20.27;29.69;98292.97;5037216;28;1554;-74
2023/10/13 02:23:59;;;;;;;;;;;;;;;20.69;29.33;98296.28;5020489;28;1479;-75
2023/10/13 02:26:32;;;;;;;;;;;;;;;20.85;28.85;98287.09;5020569;28;1581;-75
2023/10/13 02:28:58;;;;;;;;;;;;;;;20.49;29.69;98286.97;5017271;28;1491;-75
2023/10/13 02:31:27;;;;;;;;;;;;;;;20.56;29.35;98289.66;5000564;28;1683;-75
2023/10/13 02:33:53;;;;;;;;;;;;;;;20.48;29.63;98288.19;5000767;28;1493;-75
2023/10/13 02:36:22;;;;;;;;;;;;;;;20.40;29.50;98289.50;5017367;28;1615;-75
2023/10/13 02:38:50;;;;;;;;;;;;;;;20.47;29.54;98289.44;5001289;28;1898;-75
2023/10/13 02:44:06;;;;;;;;;;;;;;;21.29;28.55;98280.16;4973973;28;1558;-75
2023/10/13 02:46:35;;;;;;;;;;;;;;;21.30;28.42;98278.97;4940303;29;1575;-74
2023/10/13 02:49:04;;;;;;;;;;;;;;;21.32;28.12;98276.50;4955258;29;1589;-75
2023/10/13 02:51:35;;;;;;;;;;;;;;;20.94;28.85;98278.06;4943851;29;1553;-75
2023/10/13 02:54:02;;;;;;;;;;;;;;;20.83;28.87;98275.44;4955020;28;1638;-75
2023/10/13 02:56:28;;;;;;;;;;;;;;;20.49;29.58;98270.00;4925783;29;1673;-75
2023/10/13 02:58:56;;;;;;;;;;;;;;;20.47;29.34;98269.66;4924548;29;1976;-75
2023/10/13 03:01:28;;;;;;;;;;;;;;;20.45;29.43;98269.22;4916704;29;1571;-75
2023/10/13 03:03:54;;;;;;;;;;;;;;;20.63;29.49;98269.75;4937205;29;1621;-74
2023/10/13 03:06:21;;;;;;;;;;;;;;;20.54;29.41;98270.31;4948423;29;1551;-74
2023/10/13 03:08:47;;;;;;;;;;;;;;;20.48;29.44;98262.75;4939365;29;1496;-74
2023/10/13 03:11:14;;;;;;;;;;;;;;;20.47;29.42;98266.81;4941076;29;1559;-75
2023/10/13 03:13:44;;;;;;;;;;;;;;;20.56;29.42;98275.53;4914578;29;1389;-75
2023/10/13 03:16:16;;;;;;;;;;;;;;;20.43;29.50;98274.53;4941104;29;1676;-75
2023/10/13 03:18:51;;;;;;;;;;;;;;;20.36;29.75;98266.16;4922018;29;1972;-75
2023/10/13 03:21:28;;;;;;;;;;;;;;;20.27;29.70;98270.34;4962301;28;1477;-75
2023/10/13 03:23:54;;;;;;;;;;;;;;;20.33;29.48;98264.22;4965967;28;1557;-75
2023/10/13 03:26:20;;;;;;;;;;;;;;;20.46;29.01;98268.00;4965605;28;1546;-75
2023/10/13 03:28:52;;;;;;;;;;;;;;;20.48;29.47;98262.75;5037068;28;1475;-75
2023/10/13 03:31:27;;;;;;;;;;;;;;;20.95;28.68;98262.69;5036744;28;1503;-75
2023/10/13 03:33:59;;;;;;;;;;;;;;;21.31;28.20;98257.91;5037082;28;1488;-75
2023/10/13 03:36:56;;;;;;;;;;;;;;;21.51;27.74;98248.59;5052702;28;1463;-75
2023/10/13 03:39:13;;;;;;;;;;;;;;;21.43;27.86;98252.81;5017267;28;1961;-74
2023/10/13 03:41:40;;;;;;;;;;;;;;;20.70;29.01;98252.66;5008880;28;1480;-74
2023/10/13 03:44:13;;;;;;;;;;;;;;;20.90;28.73;98254.69;5038770;28;1581;-75
2023/10/13 03:46:40;;;;;;;;;;;;;;;20.52;29.15;98253.00;5002226;28;1934;-75
2023/10/13 03:49:12;;;;;;;;;;;;;;;20.57;29.24;98253.69;5031477;28;1798;-75
2023/10/13 03:51:38;;;;;;;;;;;;;;;20.70;29.15;98257.50;5054704;28;1598;-75
2023/10/13 03:54:07;;;;;;;;;;;;;;;20.88;28.84;98252.31;5029874;28;1165;-74
2023/10/13 03:56:38;;;;;;;;;;;;;;;20.61;29.39;98249.56;5004750;28;852;-75
2023/10/13 03:59:09;;;;;;;;;;;;;;;20.49;29.35;98258.69;5021383;28;1895;-75
2023/10/13 04:04:48;;;;;;;;;;;;;;;20.64;29.28;98260.03;5006525;28;1401;-75
2023/10/13 04:07:20;;;;;;;;;;;;;;;20.75;28.77;98254.97;5015678;28;1109;-75
2023/10/13 04:17:25;;;;;;;;;;;;;;;21.20;28.53;98256.53;4982437;28;1093;-75
2023/10/13 04:41:41;;;;;;;;;;;;;;;20.20;30.73;98270.44;4941370;29;1078;-75
2023/10/13 06:29:47;;;;;;;;;;;;;;;20.60;31.25;98361.06;4993745;28;1030;-77
2023/10/13 06:32:12;;;;;;;;;;;;;;;20.69;31.15;98369.00;4961722;28;1098;-76
2023/10/13 06:34:44;;;;;;;;;;;;;;;20.72;31.30;98366.09;4977729;28;937;-76
2023/10/13 06:37:22;;;;;;;;;;;;;;;20.66;31.20;98352.91;4980612;28;1055;-76
2023/10/13 06:39:57;;;;;;;;;;;;;;;20.59;31.40;98359.47;4982821;28;1922;-77
2023/10/13 06:42:34;;;;;;;;;;;;;;;20.51;31.55;98358.00;4997288;28;707;-76
2023/10/13 06:45:08;;;;;;;;;;;;;;;20.52;31.84;98353.94;4981439;28;1068;-76
2023/10/13 06:47:45;;;;;;;;;;;;;;;20.88;31.11;98361.81;4958215;29;890;-76
2023/10/13 06:50:19;;;;;;;;;;;;;;;20.79;31.19;98360.34;4958668;29;792;-76
2023/10/13 06:52:45;;;;;;;;;;;;;;;20.65;31.25;98366.25;4942410;29;1024;-76
2023/10/13 06:55:34;;;;;;;;;;;;;;;20.49;31.32;98366.09;4958177;29;747;-75
2023/10/13 06:57:59;;;;;;;;;;;;;;;20.46;31.71;98373.41;4957886;29;1495;-76
2023/10/13 07:03:04;;;;;;;;;;;;;;;20.72;31.12;98365.31;4977498;28;1012;-76
2023/10/13 07:05:32;;;;;;;;;;;;;;;20.67;30.83;98366.59;4941955;29;871;-77
2023/10/13 07:07:59;;;;;;;;;;;;;;;20.70;31.00;98365.75;4958316;29;950;-76
2023/10/13 07:10:29;;;;;;;;;;;;;;;20.68;30.94;98368.22;4957822;29;832;-77
2023/10/13 07:12:59;;;;;;;;;;;;;;;20.58;31.04;98369.19;4957992;29;946;-77
2023/10/13 07:15:27;;;;;;;;;;;;;;;20.73;30.85;98361.28;4958081;29;784;-76
2023/10/13 07:17:59;;;;;;;;;;;;;;;20.94;30.23;98368.59;4952675;28;760;-76
2023/10/13 07:23:11;;;;;;;;;;;;;;;20.83;30.59;98373.59;4980358;28;775;-76
2023/10/13 07:25:37;;;;;;;;;;;;;;;20.53;30.85;98376.13;4976656;28;1414;-76
2023/10/13 07:28:08;;;;;;;;;;;;;;;20.65;30.70;98371.91;4976862;28;885;-77
2023/10/13 07:30:42;;;;;;;;;;;;;;;20.63;30.93;98382.84;4977097;28;888;-76
2023/10/13 07:33:12;;;;;;;;;;;;;;;20.35;31.17;98377.59;4961013;28;1653;-76
2023/10/13 07:35:38;;;;;;;;;;;;;;;20.52;30.84;98368.06;4960679;28;1061;-76
2023/10/13 07:38:07;;;;;;;;;;;;;;;20.63;30.58;98370.75;4960745;28;1151;-76
2023/10/13 07:43:03;;;;;;;;;;;;;;;20.75;30.27;98378.59;4976676;28;973;-76
2023/10/13 07:45:38;;;;;;;;;;;;;;;20.79;30.29;98380.13;4976927;28;1116;-76
2023/10/13 07:48:19;;;;;;;;;;;;;;;20.91;29.88;98372.25;4975925;28;774;-76
2023/10/13 07:50:45;;;;;;;;;;;;;;;20.62;30.28;98374.78;4960964;28;929;-76
2023/10/13 07:53:22;;;;;;;;;;;;;;;20.46;30.62;98372.56;4977703;28;876;-76
2023/10/13 07:55:54;;;;;;;;;;;;;;;20.68;30.44;98362.56;4976603;28;836;-76
2023/10/13 07:58:23;;;;;;;;;;;;;;;20.46;30.81;98361.28;4976798;28;1910;-76
2023/10/13 08:00:53;;;;;;;;;;;;;;;20.54;30.29;98365.63;4960431;28;1183;-76
2023/10/13 08:08:37;;;;;;;;;;;;;;;20.76;30.08;98369.69;4996049;28;1029;-76
2023/10/13 08:11:24;;;;;;;;;;;;;;;20.94;29.53;98379.91;4996250;28;1120;-75
2023/10/13 08:13:54;;;;;;;;;;;;;;;20.92;29.67;98382.34;4996257;28;964;-76
2023/10/13 08:16:22;;;;;;;;;;;;;;;20.74;30.13;98374.97;4995440;28;1061;-77
2023/10/13 08:18:50;;;;;;;;;;;;;;;20.99;29.78;98371.72;4995939;28;1910;-77
2023/10/13 08:21:19;;;;;;;;;;;;;;;20.77;29.85;98374.09;4996249;28;965;-76
2023/10/13 08:32:13;;;;;;;;;;;;;;;20.47;30.41;98379.88;4918884;29;1457;-76
2023/10/13 08:34:38;;;;;;;;;;;;;;;20.54;30.11;98374.09;4902981;29;1166;-77
2023/10/13 08:37:19;;;;;;;;;;;;;;;20.52;30.28;98382.19;4918585;29;1387;-76
2023/10/13 08:48:07;;;;;;;;;;;;;;;20.93;29.38;98395.25;4918879;29;1027;-75
2023/10/13 08:58:59;;;;;;;;;;;;;;;20.78;29.90;98389.06;4902780;29;1903;-76
2023/10/13 09:01:13;;;;;;;;;;;;;;;20.87;29.54;98385.66;4924177;29;989;-76
2023/10/13 09:03:39;;;;;;;;;;;;;;;20.87;29.42;98385.66;4937084;29;952;-76
2023/10/13 09:06:08;;;;;;;;;;;;;;;20.67;29.85;98383.56;5003357;28;1006;-76
2023/10/13 09:08:58;;;;;;;;;;;;;;;20.70;29.67;98377.06;4978666;28;963;-76
2023/10/13 09:11:27;;;;;;;;;;;;;;;20.89;29.49;98383.22;4994920;28;1370;-76
2023/10/13 09:13:52;;;;;;;;;;;;;;;20.62;29.84;98381.22;4994906;28;919;-77
2023/10/13 09:19:05;;;;;;;;;;;;;;;20.56;30.02;98388.59;4981222;28;1906;-76
2023/10/13 09:24:16;;;;;;;;;;;;;;;21.00;29.40;98386.66;4994855;28;956;-76
2023/10/13 09:26:42;;;;;;;;;;;;;;;20.68;30.08;98385.19;4978620;28;1017;-76
2023/10/13 09:29:19;;;;;;;;;;;;;;;20.80;29.94;98387.38;4994681;28;1199;-76
2023/10/13 09:31:48;;;;;;;;;;;;;;;20.86;29.71;98378.41;4994704;28;981;-76
2023/10/13 09:34:20;;;;;;;;;;;;;;;20.75;29.72;98382.22;4994877;28;952;-76
2023/10/13 09:36:47;;;;;;;;;;;;;;;20.96;29.79;98381.06;4978381;28;1231;-76
2023/10/13 09:39:29;;;;;;;;;;;;;;;20.91;29.51;98375.88;4994338;28;1898;-75
2023/10/13 09:41:55;;;;;;;;;;;;;;;20.63;30.14;98370.75;4978344;28;950;-77
2023/10/13 09:44:21;;;;;;;;;;;;;;;20.71;30.06;98367.34;4978704;28;1279;-75
2023/10/13 09:46:49;;;;;;;;;;;;;;;20.73;29.88;98369.75;5014947;28;1000;-76
2023/10/13 09:49:15;;;;;;;;;;;;;;;21.05;29.38;98380.50;5018407;28;948;-76
2023/10/13 09:51:45;;;;;;;;;;;;;;;21.04;29.46;98370.41;5018936;28;927;-76
2023/10/13 09:54:19;;;;;;;;;;;;;;;20.86;29.75;98367.09;4986218;28;959;-77
2023/10/13 09:56:51;;;;;;;;;;;;;;;21.11;29.39;98347.63;5035877;28;911;-76
2023/10/13 09:59:40;;;;;;;;;;;;;;;21.04;29.61;98351.41;5001922;28;1907;-76
2023/10/13 10:02:08;;;;;;;;;;;;;;;21.12;29.29;98349.22;5018804;28;1029;-76
2023/10/13 10:04:45;;;;;;;;;;;;;;;20.89;29.77;98354.94;5018662;28;1012;-76
2023/10/13 10:07:10;;;;;;;;;;;;;;;20.67;30.24;98343.97;5019914;28;960;-77
2023/10/13 10:09:39;;;;;;;;;;;;;;;20.63;30.21;98348.91;5002398;28;1132;-76
2023/10/13 10:12:18;;;;;;;;;;;;;;;20.92;29.71;98349.19;4996464;28;1129;-76
2023/10/13 10:14:46;;;;;;;;;;;;;;;21.07;29.63;98349.72;4966150;28;955;-76
2023/10/13 10:17:12;;;;;;;;;;;;;;;20.95;29.99;98345.50;4997777;28;2152;-76
2023/10/13 10:19:49;;;;;;;;;;;;;;;20.90;29.66;98350.88;4965990;28;1961;-76
2023/10/13 10:22:24;;;;;;;;;;;;;;;20.78;30.14;98338.97;4981983;28;943;-76
2023/10/13 10:24:56;;;;;;;;;;;;;;;20.61;30.08;98340.06;4998417;28;919;-76
2023/10/13 10:27:25;;;;;;;;;;;;;;;20.73;30.30;98342.28;4965771;28;968;-76
2023/10/13 10:29:54;;;;;;;;;;;;;;;20.99;29.69;98336.97;4966014;28;1167;-76
2023/10/13 10:32:19;;;;;;;;;;;;;;;20.64;30.17;98338.41;4965731;28;1363;-77
2023/10/13 10:34:45;;;;;;;;;;;;;;;20.47;30.45;98337.47;4981819;28;1040;-76
2023/10/13 10:37:10;;;;;;;;;;;;;;;20.43;30.53;98342.38;4964193;28;1102;-76
2023/10/13 10:39:45;;;;;;;;;;;;;;;20.84;29.89;98329.97;4980246;28;1974;-76
2023/10/13 10:42:31;;;;;;;;;;;;;;;20.88;30.02;98336.34;4956126;28;1133;-76
2023/10/13 10:45:05;;;;;;;;;;;;;;;20.85;29.94;98337.22;5023385;28;1036;-75
2023/10/13 10:47:38;;;;;;;;;;;;;;;20.69;30.25;98335.88;5037983;28;971;-76
2023/10/13 10:50:08;;;;;;;;;;;;;;;21.04;29.70;98333.63;5020545;28;853;-76
2023/10/13 10:52:37;;;;;;;;;;;;;;;20.71;30.29;98324.94;5004929;28;885;-77
2023/10/13 10:55:07;;;;;;;;;;;;;;;20.93;29.94;98333.03;5021057;28;933;-76
2023/10/13 10:57:37;;;;;;;;;;;;;;;20.69;30.12;98318.91;5004277;28;1160;-75
2023/10/13 11:00:11;;;;;;;;;;;;;;;20.73;30.05;98322.47;5037737;28;1918;-75
2023/10/13 11:02:37;;;;;;;;;;;;;;;20.78;30.25;98326.84;5021748;28;1049;-75
2023/10/13 11:05:05;;;;;;;;;;;;;;;20.78;30.22;98319.16;5020457;28;917;-77
2023/10/13 11:07:31;;;;;;;;;;;;;;;20.76;30.08;98321.59;5020612;28;1124;-75
2023/10/13 11:10:06;;;;;;;;;;;;;;;20.68;30.25;98317.31;5004031;28;885;-76
2023/10/13 11:12:34;;;;;;;;;;;;;;;20.74;30.25;98314.78;5004156;28;1261;-76
2023/10/13 11:15:07;;;;;;;;;;;;;;;20.88;30.16;98320.19;5003792;28;1280;-76
2023/10/13 11:17:42;;;;;;;;;;;;;;;20.89;30.06;98310.47;5021037;28;929;-76
2023/10/13 11:20:15;;;;;;;;;;;;;;;20.78;30.04;98310.69;5020023;28;1914;-76
2023/10/13 11:22:46;;;;;;;;;;;;;;;20.89;30.10;98304.03;5020679;28;877;-76
2023/10/13 11:25:19;;;;;;;;;;;;;;;21.02;29.82;98311.41;5020506;28;1062;-76
2023/10/13 11:30:25;;;;;;;;;;;;;;;21.01;29.97;98317.53;5037425;28;920;-76
2023/10/13 11:33:01;;;;;;;;;;;;;;;20.81;30.09;98318.28;5020652;28;951;-76
2023/10/13 11:35:48;;;;;;;;;;;;;;;21.00;29.84;98322.38;4957693;28;1310867;-76
2023/10/13 11:38:14;;;;;;;;;;;;;;;20.86;29.74;98321.84;5007197;28;1093;-76
2023/10/13 11:43:24;;;;;;;;;;;;;;;20.70;30.36;98326.16;5038372;28;884;-76
2023/10/13 11:46:12;;;;;;;;;;;;;;;20.79;30.03;98326.41;5004477;28;1017;-77
2023/10/13 11:48:38;;;;;;;;;;;;;;;20.59;30.62;98324.75;5023705;28;927;-75
2023/10/13 11:51:07;;;;;;;;;;;;;;;20.80;29.98;98319.50;5020472;28;896;-75
2023/10/13 11:53:36;;;;;;;;;;;;;;;20.92;30.12;98320.09;5020722;28;988;-75
2023/10/13 11:56:08;;;;;;;;;;;;;;;21.20;29.48;98315.94;5004009;28;1557;-76
2023/10/13 11:58:34;;;;;;;;;;;;;;;21.32;29.07;98313.28;5004758;28;1910;-75
2023/10/13 12:11:48;;;;;;;;;;;;;;;20.90;29.93;98322.59;5037434;28;865;-77
2023/10/13 12:14:17;;;;;;;;;;;;;;;20.91;29.90;98324.19;4959969;28;1217;-76
2023/10/13 12:16:48;;;;;;;;;;;;;;;20.84;30.05;98324.31;4960654;28;1003;-75
2023/10/13 12:19:16;;;;;;;;;;;;;;;20.92;30.17;98311.63;4944671;28;1907;-76
2023/10/13 12:21:43;;;;;;;;;;;;;;;20.86;29.96;98316.19;4960315;28;1096;-76
2023/10/13 12:24:22;;;;;;;;;;;;;;;20.81;29.99;98321.09;4960451;28;888;-76
2023/10/13 12:26:48;;;;;;;;;;;;;;;20.97;29.90;98316.78;4923218;29;1045;-77
2023/10/13 12:29:22;;;;;;;;;;;;;;;20.67;30.26;98321.34;4937893;29;995;-76
2023/10/13 12:32:01;;;;;;;;;;;;;;;20.64;30.20;98318.63;4937828;29;946;-76
2023/10/13 12:34:46;;;;;;;;;;;;;;;20.80;30.21;98313.84;4937165;29;1017;-77
2023/10/13 12:37:37;;;;;;;;;;;;;;;20.87;29.70;98317.78;4921851;29;1293;-76
2023/10/13 12:51:07;;;;;;;;;;;;;;;20.73;30.08;98319.66;4981298;28;951;-76
2023/10/13 12:53:33;;;;;;;;;;;;;;;20.56;30.29;98320.75;4963187;28;1088;-75
2023/10/13 12:55:58;;;;;;;;;;;;;;;20.85;29.73;98337.22;4995593;28;1090;-76
2023/10/13 12:58:26;;;;;;;;;;;;;;;20.91;29.61;98329.84;4979062;28;1988;-76
2023/10/13 13:00:59;;;;;;;;;;;;;;;20.93;29.59;98321.69;4979159;28;941;-76
2023/10/13 13:03:29;;;;;;;;;;;;;;;20.85;29.73;98326.72;4986252;28;944;-77
2023/10/13 13:05:55;;;;;;;;;;;;;;;21.05;29.50;98312.59;5003172;28;1240;-77
2023/10/13 13:08:24;;;;;;;;;;;;;;;20.67;30.17;98314.91;5036439;28;919;-76
2023/10/13 13:10:50;;;;;;;;;;;;;;;20.79;29.83;98314.31;5036463;28;984;-77
2023/10/13 13:13:16;;;;;;;;;;;;;;;21.04;29.53;98323.13;4959189;28;962;-75
2023/10/13 13:15:42;;;;;;;;;;;;;;;20.87;29.67;98317.78;4943437;28;1087;-77
2023/10/13 13:18:11;;;;;;;;;;;;;;;20.83;29.63;98323.53;4927494;28;1200;-76
2023/10/13 13:20:39;;;;;;;;;;;;;;;20.57;30.08;98322.34;4959463;28;2001;-76
2023/10/13 13:23:05;;;;;;;;;;;;;;;20.78;29.97;98324.81;4943235;28;1604;-76
2023/10/13 13:25:31;;;;;;;;;;;;;;;20.78;29.87;98316.34;4958987;28;1178;-76
2023/10/13 13:27:57;;;;;;;;;;;;;;;20.89;29.61;98310.47;4959208;28;962;-76
2023/10/13 13:30:34;;;;;;;;;;;;;;;20.98;29.58;98313.50;4943012;28;894;-75
2023/10/13 13:33:03;;;;;;;;;;;;;;;20.86;29.52;98316.97;4960324;28;1075;-76
2023/10/13 13:35:34;;;;;;;;;;;;;;;20.65;30.26;98321.00;4959235;28;1179;-76
2023/10/13 13:38:09;;;;;;;;;;;;;;;20.89;29.59;98309.69;4959449;28;939;-76
2023/10/13 13:40:38;;;;;;;;;;;;;;;20.99;29.40;98326.44;4960211;28;1902;-76
2023/10/13 13:43:04;;;;;;;;;;;;;;;20.89;29.45;98326.66;4959223;28;920;-75
2023/10/13 13:45:32;;;;;;;;;;;;;;;20.88;29.55;98325.84;4993612;28;1005;-76
2023/10/13 13:47:57;;;;;;;;;;;;;;;20.69;29.91;98330.22;4961427;28;976;-76
2023/10/13 13:50:25;;;;;;;;;;;;;;;20.75;29.86;98328.50;4994443;28;1022;-77
2023/10/13 13:52:56;;;;;;;;;;;;;;;20.73;30.13;98330.97;4994289;28;981;-75
2023/10/13 13:55:22;;;;;;;;;;;;;;;20.64;29.99;98316.59;4994471;28;986;-76
2023/10/13 13:57:50;;;;;;;;;;;;;;;21.05;29.32;98319.06;4962341;28;996;-76
2023/10/13 14:03:05;;;;;;;;;;;;;;;20.64;30.03;98322.25;4955271;29;1033;-75
2023/10/13 14:05:30;;;;;;;;;;;;;;;20.96;29.37;98315.19;4955401;29;1054;-76
2023/10/13 14:07:56;;;;;;;;;;;;;;;20.91;29.86;98324.19;4955219;29;1025;-76
2023/10/13 14:11:13;;;;;;;;;;;;;;;20.71;30.02;98319.28;4955711;29;928;-76
2023/10/13 14:13:22;;;;;;;;;;;;;;;20.55;29.95;98324.81;4955246;29;1171;-76
2023/10/13 14:15:48;;;;;;;;;;;;;;;20.70;29.88;98326.16;4947830;28;992;-76
2023/10/13 14:18:16;;;;;;;;;;;;;;;20.97;29.66;98317.56;4994151;28;932;-76
2023/10/13 14:20:42;;;;;;;;;;;;;;;20.73;30.02;98314.00;4962228;28;1914;-76
2023/10/13 14:23:11;;;;;;;;;;;;;;;20.64;29.88;98316.59;4977878;28;755;-76
2023/10/13 14:25:37;;;;;;;;;;;;;;;20.68;29.87;98322.19;4955187;29;925;-76
2023/10/13 14:28:04;;;;;;;;;;;;;;;20.59;29.91;98321.94;4954719;29;905;-76
2023/10/13 14:30:31;;;;;;;;;;;;;;;20.67;30.02;98327.00;4939084;29;922;-75
2023/10/13 14:32:58;;;;;;;;;;;;;;;20.64;29.97;98327.09;4939289;29;1248;-76
2023/10/13 14:35:25;;;;;;;;;;;;;;;20.64;30.26;98321.44;4954965;29;1198;-76
2023/10/13 14:37:51;;;;;;;;;;;;;;;20.68;29.84;98317.31;4954879;29;1090;-76
2023/10/13 14:40:21;;;;;;;;;;;;;;;20.75;29.66;98317.19;4978032;28;1906;-76
2023/10/13 14:42:47;;;;;;;;;;;;;;;20.79;29.79;98329.22;4993516;28;1012;-76
2023/10/13 14:45:13;;;;;;;;;;;;;;;20.96;29.43;98321.66;4961482;28;1228;-75
2023/10/13 14:47:42;;;;;;;;;;;;;;;20.90;29.47;98336.72;4994106;28;923;-76
2023/10/13 14:50:14;;;;;;;;;;;;;;;20.92;29.62;98331.44;4993687;28;1053;-76
2023/10/13 14:52:39;;;;;;;;;;;;;;;20.90;29.79;98323.38;4993998;28;975;-76
2023/10/13 14:55:07;;;;;;;;;;;;;;;20.75;29.75;98328.50;4977536;28;939;-75
2023/10/13 14:57:37;;;;;;;;;;;;;;;20.72;29.60;98340.66;5014426;28;999;-76
2023/10/13 15:00:03;;;;;;;;;;;;;;;20.77;29.65;98342.19;5021115;28;1906;-75
2023/10/13 15:02:28;;;;;;;;;;;;;;;20.74;29.86;98338.22;4961297;28;1212;-76
2023/10/13 15:04:54;;;;;;;;;;;;;;;20.83;29.74;98339.66;4961378;28;1105;-75
2023/10/13 15:07:22;;;;;;;;;;;;;;;20.86;29.70;98336.00;4961189;28;1151;-76
2023/10/13 15:09:47;;;;;;;;;;;;;;;20.66;29.87;98335.94;4961861;28;949;-76
2023/10/13 15:12:14;;;;;;;;;;;;;;;20.91;29.55;98332.66;4945729;28;935;-76
2023/10/13 15:14:42;;;;;;;;;;;;;;;20.40;30.14;98320.59;4961474;28;1033;-75
2023/10/13 15:17:09;;;;;;;;;;;;;;;20.60;29.77;98327.16;4945234;28;1183;-76
2023/10/13 15:19:36;;;;;;;;;;;;;;;20.70;29.50;98326.16;4961338;28;1969;-76
2023/10/13 15:22:02;;;;;;;;;;;;;;;20.85;29.43;98334.41;4945416;28;1310;-76
2023/10/13 15:24:28;;;;;;;;;;;;;;;20.94;29.26;98340.28;4945327;28;1125;-76
2023/10/13 15:27:01;;;;;;;;;;;;;;;20.90;29.18;98333.91;4922750;29;993;-75
2023/10/13 15:29:35;;;;;;;;;;;;;;;20.72;29.51;98334.19;4923870;29;1031;-76
2023/10/13 15:34:26;;;;;;;;;;;;;;;20.15;30.32;98330.25;4974972;28;1282;-75
2023/10/13 15:36:53;;;;;;;;;;;;;;;20.59;30.06;98331.22;4964776;28;1184;-76
2023/10/13 15:39:23;;;;;;;;;;;;;;;21.35;29.32;98348.41;4961076;28;2212;-76
2023/10/13 15:41:58;;;;;;;;;;;;;;;21.44;29.66;98350.66;4976839;28;1010;-76
2023/10/13 15:44:24;;;;;;;;;;;;;;;21.51;29.65;98344.88;4977276;28;1002;-76
2023/10/13 15:46:53;;;;;;;;;;;;;;;21.17;30.51;98354.38;4922605;29;1164;-76
2023/10/13 15:49:18;;;;;;;;;;;;;;;20.87;30.90;98363.03;4922437;29;1088;-76
2023/10/13 15:51:44;;;;;;;;;;;;;;;20.87;30.86;98369.50;4938203;29;968;-76
2023/10/13 15:54:15;;;;;;;;;;;;;;;21.00;30.12;98372.50;4938093;29;952;-76
2023/10/13 15:56:44;;;;;;;;;;;;;;;20.72;30.40;98374.59;4919280;29;943;-76
2023/10/13 15:59:10;;;;;;;;;;;;;;;20.74;30.51;98366.50;4957720;28;1906;-76
2023/10/13 16:01:38;;;;;;;;;;;;;;;20.69;30.53;98369.00;4957369;28;950;-75
2023/10/13 16:04:10;;;;;;;;;;;;;;;20.70;30.85;98360.09;4957076;29;1002;-76
2023/10/13 16:06:37;;;;;;;;;;;;;;;20.54;30.78;98357.16;4957056;29;1103;-76
2023/10/13 16:09:03;;;;;;;;;;;;;;;20.36;31.06;98356.59;4940322;29;974;-76
2023/10/13 16:11:28;;;;;;;;;;;;;;;20.78;30.65;98372.91;4956599;29;898;-77
2023/10/13 16:13:54;;;;;;;;;;;;;;;20.64;30.88;98367.47;4941271;29;1012;-76
2023/10/13 16:16:23;;;;;;;;;;;;;;;20.45;31.08;98376.63;4963052;28;1005;-76
2023/10/13 16:18:49;;;;;;;;;;;;;;;20.64;30.64;98370.31;4995305;28;1898;-76
2023/10/13 16:21:15;;;;;;;;;;;;;;;20.62;30.49;98369.13;4998754;28;1277;-75
2023/10/13 16:23:50;;;;;;;;;;;;;;;20.62;30.45;98375.56;4976035;28;1055;-76
2023/10/13 16:26:16;;;;;;;;;;;;;;;20.52;31.01;98365.22;4960655;28;1113;-76
2023/10/13 16:28:41;;;;;;;;;;;;;;;20.36;31.18;98373.53;4942208;29;1052;-76
2023/10/13 16:31:10;;;;;;;;;;;;;;;20.63;30.46;98374.38;4934492;29;1546;-76
2023/10/13 16:33:36;;;;;;;;;;;;;;;20.69;30.33;98378.28;4934502;29;1040;-76
2023/10/13 16:36:10;;;;;;;;;;;;;;;20.58;30.40;98380.50;4918254;29;1306;-76
2023/10/13 16:38:36;;;;;;;;;;;;;;;20.68;30.38;98385.19;4955680;29;1898;-76
2023/10/13 16:41:05;;;;;;;;;;;;;;;20.46;30.78;98389.53;4956780;29;949;-76
2023/10/13 16:43:33;;;;;;;;;;;;;;;20.54;30.43;98380.56;4937339;29;1224;-76
2023/10/13 16:45:58;;;;;;;;;;;;;;;20.42;30.83;98388.81;4937098;29;968;-76
2023/10/13 16:48:26;;;;;;;;;;;;;;;20.45;30.59;98383.09;4936784;29;1103;-75
2023/10/13 16:50:52;;;;;;;;;;;;;;;20.40;30.83;98392.06;4921707;29;977;-76
2023/10/13 16:53:17;;;;;;;;;;;;;;;20.47;30.40;98386.34;4936957;29;1058;-75